Arlington, OR

9:13 AM PDT on August 30, 2014 (GMT -0700)
KORARLIN2 | Change Station
CLOSE
Current Station
Personal Weather Station
Location: Arlington, OR
Elevation: 890 ft
Nearby Weather Stations

Elev 890 ft 45.72 °N, 120.18 °W | Updated 4 minutes ago

Overcast
Overcast
67.5 °F
Feels Like 67.5 °F
N
10.0
Wind Variable Wind from WSW
Gusts 11.0 mph

Today
High -- | Low -- °F
--% Chance of Precip.
Yesterday
High -- | Low -- °F
Precip. -- in
6:19 AM 7:42 PM
Waxing Crescent, 23% visible
Pressure 29.88 in
Visibility 10.0 miles
Clouds Mostly Cloudy 9500 ft
Dew Point 52 °F
Humidity 57%
Rainfall 0.00 in
Snow Depth Not available.
UV 1.9 out of 12
Pollen 6.20 out of 12
Air Quality Not available.
Flu Activity Not available.
METAR KHRI 301553Z AUTO VRB03KT 10SM BKN095 19/12 A2990 RMK AO2 SLP119 T01940117

More Conditions Fewer Conditions

Pressure 29.88 in
Visibility 10.0 miles
Clouds Mostly Cloudy 9500 ft
Dew Point 52 °F
Humidity 57%
Rainfall 0.00 in
Snow Depth Not available.
UV 1.9 out of 12
Pollen 6.20 out of 12
Air Quality Not available.
Flu Activity Not available.
METAR KHRI 301553Z AUTO VRB03KT 10SM BKN095 19/12 A2990 RMK AO2 SLP119 T01940117

More Conditions Fewer Conditions

10-Day Weather Forecast

Almanac

Astronomy

Aug. 30, 2014 Rise Set
Actual Time 6:19 AM PDT 7:42 PM PDT
Civil Twilight 5:48 AM PDT 8:12 PM PDT
Nautical Twilight 5:11 AM PDT 8:50 PM PDT
Astronomical Twilight 4:31 AM PDT 9:29 PM PDT
Moon 11:28 AM PDT 10:02 PM PDT
Length of Visible Light 14h 24m
Length of Day
13h 22m
Tomorrow will be 3m 5s shorter.
Waxing Crescent, 23% of the Moon is Illuminated
Today
Waxing Crescent
Sep 2
First Quarter
Sep 8
Full
Sep 15
Last Quarter
Sep 24
New

Today's Extremes

State Highs State Lows

Community

WunderPhotos

Upload Photos

1,748,556 photos uploaded!

WunderBlogs® & News

Nearby

Snow Depth

Station Depth Elevation
Madison Butte 0 in 5250 ft
Arbuckle Mountain 0 in 5400 ft
Lucky Strike 1 in 5050 ft
Greenpoint 1 in 3200 ft
Red Hill 0 in 4400 ft

Earthquake Activity

City Distance Mag. Time & Date
No recent earthquake activity has been reported nearby.
Minimum magnitude displayed is 2.5.

Coastal Water Temperatures

Place Temperature
No Stations Reporting

Nearby Weather Stations